Terminal Aerodrome Forecast
Issued by NWS Central Illinois

Home | Current Version | Previous Version | Text Only | Print | Product List | Glossary On
Versions: 1 2 3 4 5 6 7 8 9 10 11 12 13 14
000
FTUS43 KILX 280332 AAA
TAFSPI
TAF AMD
KSPI 280332Z 2804/2824 15015KT P6SM VCSH SCT035 BKN090
     FM280600 16015KT 5SM -SHRA BR VCTS SCT012 OVC025CB
     FM281200 18012KT P6SM BKN020=

USA.gov is the U.S. government's official web portal to all federal, state and local government web resources and services.